John G — WDF2677 — position and weather

sailwx.info

Track history (hours):
 
Tides and Currents Weather Stations Pressure Air Temp Water Temp Dewpoint Dewpoint Depression Visibility Wind Speed Wind Dir Waves Ship Positions

John G

Owner: Marquette Transportation Company Offshore LLC, Jefferson, LA. More information available from US FCC via Universal Licensing System and Coast Guard Vessel Documentation Center.

Last reported at 2015-Jul-21 11:22 UTC. Time now 2015-Jul-30 16:11 UTC.
Position N 29°55' W 090°05'.
Warning: this ship's position is 9 days out of date.

Length 30 m; draft 3.3 m.

Type: Towing. MMSI: 367009680.

Date/timePositionNaut miles runAvg speedWind from/ knotsBaromVisibWave heightAir tempDewpointWater temp
2015-Jul-21 11:22N 29°55' W 090°05'3 3.0
2015-Jul-21 10:30N 29°55' W 090°08'4 0.5
2015-Jul-21 01:19N 29°56' W 090°13'4 2.3
2015-Jul-20 23:33N 29°55' W 090°08'4 3.5
2015-Jul-20 22:32N 29°55' W 090°04'3 2.6
2015-Jul-20 21:33N 29°57' W 090°02'2 2.4
2015-Jul-20 20:33N 29°56' W 089°60'1 1.0
2015-Jul-20 19:33N 29°56' W 089°59'0 0.0
2015-Jul-20 18:33N 29°56' W 089°59'0 0.0
2015-Jul-20 17:29N 29°56' W 089°59'1 0.0
2015-Jul-19 13:27N 29°56' W 090°00'0 0.0
2015-Jul-18 16:08N 29°56' W 090°00'0 0.0
2015-Jul-18 15:30N 29°56' W 090°00'0 0.0
2015-Jul-18 14:30N 29°56' W 090°00'0 0.0
2015-Jul-18 12:23N 29°56' W 090°00'0 0.0
2015-Jul-18 11:23N 29°56' W 090°00'0 0.0
2015-Jul-18 10:29N 29°56' W 090°00'0 0.0
2015-Jul-18 09:31N 29°56' W 090°00'0 0.0
2015-Jul-18 08:18N 29°56' W 090°00'0 0.0
2015-Jul-18 07:18N 29°56' W 090°00'0 0.0
2015-Jul-18 06:33N 29°56' W 090°00'0 0.0
2015-Jul-18 05:32N 29°56' W 090°00'0 0.0
2015-Jul-18 04:33N 29°56' W 090°00'0 0.0
2015-Jul-18 03:28N 29°56' W 090°00'0 0.0
2015-Jul-18 02:23N 29°56' W 090°00'0 0.0
2015-Jul-18 01:33N 29°56' W 090°00'0 0.0
2015-Jul-18 00:31N 29°56' W 090°00'0 0.0
2015-Jul-17 23:33N 29°56' W 090°00'0 0.0
2015-Jul-17 22:32N 29°56' W 090°00'0 0.0
2015-Jul-17 21:29N 29°56' W 090°00'0 0.0
2015-Jul-17 20:33N 29°56' W 090°00'0 0.0
2015-Jul-17 19:33N 29°56' W 090°00'0 0.0
2015-Jul-17 18:33N 29°56' W 090°00'0 0.0
2015-Jul-17 17:31N 29°56' W 090°00'0 0.0
2015-Jul-17 16:32N 29°56' W 090°00'0 0.0
2015-Jul-17 15:30N 29°56' W 090°00'0 0.0
2015-Jul-16 21:22N 29°56' W 090°00'0 0.0
2015-Jul-16 20:22N 29°56' W 090°00'0 0.0
2015-Jul-16 18:27N 29°56' W 090°00'0 0.0
2015-Jul-16 16:33N 29°56' W 090°00'0 0.0
2015-Jul-16 15:30N 29°56' W 090°00'0 0.0
2015-Jul-16 13:31N 29°56' W 090°00'0 0.0
2015-Jul-16 12:23N 29°56' W 090°00'0 0.0
2015-Jul-16 11:33N 29°56' W 090°00'0 0.0
2015-Jul-16 10:33N 29°56' W 090°00'0 0.0
2015-Jul-16 09:29N 29°56' W 090°00'0 0.0
2015-Jul-16 08:28N 29°56' W 090°00'0 0.0
2015-Jul-16 07:21N 29°56' W 090°00'0 0.0
2015-Jul-16 06:33N 29°56' W 090°00'0 0.0
2015-Jul-16 05:31N 29°56' W 090°00'0 0.0
2015-Jul-16 04:31N 29°56' W 090°00'0 0.0
2015-Jul-16 03:33N 29°56' W 090°00'0 0.0
2015-Jul-16 02:31N 29°56' W 090°00'0 0.0
2015-Jul-16 01:33N 29°56' W 090°00'0 0.0
2015-Jul-16 00:27N 29°56' W 090°00'0 0.0
2015-Jul-15 23:33N 29°56' W 090°00'0 0.0
2015-Jul-15 22:28N 29°56' W 090°00'0 0.0
2015-Jul-15 03:31N 29°56' W 090°00'0 0.0
2015-Jul-15 02:27N 29°56' W 090°00'0 0.0
2015-Jul-15 01:15N 29°56' W 090°00'0 0.0
2015-Jul-15 00:27N 29°56' W 090°00'0 0.0
2015-Jul-14 23:22N 29°56' W 090°00'0 0.0
2015-Jul-14 22:31N 29°56' W 090°00'0 0.0
2015-Jul-14 21:28N 29°56' W 090°00'0 0.0
2015-Jul-14 20:26N 29°56' W 090°00'0 0.0
2015-Jul-14 19:28N 29°56' W 090°00'0 0.0
2015-Jul-14 18:33N 29°56' W 090°00'0 0.0
2015-Jul-14 17:13N 29°56' W 090°00'0 0.0
2015-Jul-14 16:26N 29°56' W 090°00'0 0.0
2015-Jul-14 15:32N 29°56' W 090°00'0 0.0
2015-Jul-14 14:26N 29°56' W 090°00'0 0.0
2015-Jul-14 13:20N 29°56' W 090°00'0 0.0
2015-Jul-14 12:28N 29°56' W 090°00'0 0.4
2015-Jul-14 11:32N 29°56' W 089°60'2 2.2
2015-Jul-14 10:33N 29°57' W 090°02'0 0.0
2015-Jul-14 09:31N 29°57' W 090°02'1 0.7
2015-Jul-14 08:32N 29°58' W 090°02'0 0.3
2015-Jul-14 07:30N 29°58' W 090°01'3 2.4
2015-Jul-14 06:23N 30°00' W 089°59'0 0.2
2015-Jul-14 05:26N 30°00' W 089°59'0 0.0
2015-Jul-14 04:33N 30°00' W 089°59'0 0.0
2015-Jul-14 03:29N 30°00' W 089°59'0 0.0
2015-Jul-14 02:33N 30°00' W 089°59'0 0.0
2015-Jul-13 09:29N 30°00' W 089°59'0 0.0
2015-Jul-13 08:32N 30°00' W 089°59'0 0.0
2015-Jul-13 07:20N 29°60' W 089°59'0 0.0
2015-Jul-13 06:27N 29°60' W 089°59'0 0.0
2015-Jul-13 05:23N 29°60' W 089°59'0 0.0
2015-Jul-13 04:26N 29°60' W 089°59'0 0.0
2015-Jul-13 03:28N 29°60' W 089°59'0 0.0
2015-Jul-13 02:27N 29°60' W 089°59'0 0.0
2015-Jul-13 01:33N 29°60' W 089°59'0 0.0
2015-Jul-13 00:19N 29°60' W 089°59'0 0.0
2015-Jul-12 23:33N 29°60' W 089°59'0 0.0
2015-Jul-12 22:21N 29°60' W 089°59'0 0.0
2015-Jul-12 21:27N 29°60' W 089°59'0 0.0
2015-Jul-12 20:30N 29°60' W 089°59'0 0.0
2015-Jul-12 19:33N 29°60' W 089°59'0 0.0
2015-Jul-12 18:31N 29°60' W 089°59'0 0.0
2015-Jul-12 17:27N 29°60' W 089°59'0 0.0
2015-Jul-12 16:27N 29°60' W 089°59'0 0.0
2015-Jul-12 15:29N 29°60' W 089°59'0 0.0
2015-Jul-12 14:29N 29°60' W 089°59'0 0.0
2015-Jul-12 13:31N 29°60' W 089°59'0 0.0
2015-Jul-12 12:28N 29°60' W 089°59'  
Track history (hours):
 
Tides and Currents Weather Stations Pressure Air Temp Water Temp Dewpoint Dewpoint Depression Visibility Wind Speed Wind Dir Waves Ship Positions

John G

Owner: Marquette Transportation Company Offshore LLC, Jefferson, LA. More information available from US FCC via Universal Licensing System and Coast Guard Vessel Documentation Center.

Last reported at 2015-Jul-21 11:22 UTC. Time now 2015-Jul-30 16:11 UTC.
Position N 29°55' W 090°05'.
Warning: this ship's position is 9 days out of date.

Length 30 m; draft 3.3 m.

Type: Towing. MMSI: 367009680.

Date/timePositionNaut miles runAvg speedWind from/ knotsBaromVisibWave heightAir tempDewpointWater temp
2015-Jul-21 11:22N 29°55' W 090°05'3 3.0
2015-Jul-21 10:30N 29°55' W 090°08'4 0.5
2015-Jul-21 01:19N 29°56' W 090°13'4 2.3
2015-Jul-20 23:33N 29°55' W 090°08'4 3.5
2015-Jul-20 22:32N 29°55' W 090°04'3 2.6
2015-Jul-20 21:33N 29°57' W 090°02'2 2.4
2015-Jul-20 20:33N 29°56' W 089°60'1 1.0
2015-Jul-20 19:33N 29°56' W 089°59'0 0.0
2015-Jul-20 18:33N 29°56' W 089°59'0 0.0
2015-Jul-20 17:29N 29°56' W 089°59'1 0.0
2015-Jul-19 13:27N 29°56' W 090°00'0 0.0
2015-Jul-18 16:08N 29°56' W 090°00'0 0.0
2015-Jul-18 15:30N 29°56' W 090°00'0 0.0
2015-Jul-18 14:30N 29°56' W 090°00'0 0.0
2015-Jul-18 12:23N 29°56' W 090°00'0 0.0
2015-Jul-18 11:23N 29°56' W 090°00'0 0.0
2015-Jul-18 10:29N 29°56' W 090°00'0 0.0
2015-Jul-18 09:31N 29°56' W 090°00'0 0.0
2015-Jul-18 08:18N 29°56' W 090°00'0 0.0
2015-Jul-18 07:18N 29°56' W 090°00'0 0.0
2015-Jul-18 06:33N 29°56' W 090°00'0 0.0
2015-Jul-18 05:32N 29°56' W 090°00'0 0.0
2015-Jul-18 04:33N 29°56' W 090°00'0 0.0
2015-Jul-18 03:28N 29°56' W 090°00'0 0.0
2015-Jul-18 02:23N 29°56' W 090°00'0 0.0
2015-Jul-18 01:33N 29°56' W 090°00'0 0.0
2015-Jul-18 00:31N 29°56' W 090°00'0 0.0
2015-Jul-17 23:33N 29°56' W 090°00'0 0.0
2015-Jul-17 22:32N 29°56' W 090°00'0 0.0
2015-Jul-17 21:29N 29°56' W 090°00'0 0.0
2015-Jul-17 20:33N 29°56' W 090°00'0 0.0
2015-Jul-17 19:33N 29°56' W 090°00'0 0.0
2015-Jul-17 18:33N 29°56' W 090°00'0 0.0
2015-Jul-17 17:31N 29°56' W 090°00'0 0.0
2015-Jul-17 16:32N 29°56' W 090°00'0 0.0
2015-Jul-17 15:30N 29°56' W 090°00'0 0.0
2015-Jul-16 21:22N 29°56' W 090°00'0 0.0
2015-Jul-16 20:22N 29°56' W 090°00'0 0.0
2015-Jul-16 18:27N 29°56' W 090°00'0 0.0
2015-Jul-16 16:33N 29°56' W 090°00'0 0.0
2015-Jul-16 15:30N 29°56' W 090°00'0 0.0
2015-Jul-16 13:31N 29°56' W 090°00'0 0.0
2015-Jul-16 12:23N 29°56' W 090°00'0 0.0
2015-Jul-16 11:33N 29°56' W 090°00'0 0.0
2015-Jul-16 10:33N 29°56' W 090°00'0 0.0
2015-Jul-16 09:29N 29°56' W 090°00'0 0.0
2015-Jul-16 08:28N 29°56' W 090°00'0 0.0
2015-Jul-16 07:21N 29°56' W 090°00'0 0.0
2015-Jul-16 06:33N 29°56' W 090°00'0 0.0
2015-Jul-16 05:31N 29°56' W 090°00'0 0.0
2015-Jul-16 04:31N 29°56' W 090°00'0 0.0
2015-Jul-16 03:33N 29°56' W 090°00'0 0.0
2015-Jul-16 02:31N 29°56' W 090°00'0 0.0
2015-Jul-16 01:33N 29°56' W 090°00'0 0.0
2015-Jul-16 00:27N 29°56' W 090°00'0 0.0
2015-Jul-15 23:33N 29°56' W 090°00'0 0.0
2015-Jul-15 22:28N 29°56' W 090°00'0 0.0
2015-Jul-15 03:31N 29°56' W 090°00'0 0.0
2015-Jul-15 02:27N 29°56' W 090°00'0 0.0
2015-Jul-15 01:15N 29°56' W 090°00'0 0.0
2015-Jul-15 00:27N 29°56' W 090°00'0 0.0
2015-Jul-14 23:22N 29°56' W 090°00'0 0.0
2015-Jul-14 22:31N 29°56' W 090°00'0 0.0
2015-Jul-14 21:28N 29°56' W 090°00'0 0.0
2015-Jul-14 20:26N 29°56' W 090°00'0 0.0
2015-Jul-14 19:28N 29°56' W 090°00'0 0.0
2015-Jul-14 18:33N 29°56' W 090°00'0 0.0
2015-Jul-14 17:13N 29°56' W 090°00'0 0.0
2015-Jul-14 16:26N 29°56' W 090°00'0 0.0
2015-Jul-14 15:32N 29°56' W 090°00'0 0.0
2015-Jul-14 14:26N 29°56' W 090°00'0 0.0
2015-Jul-14 13:20N 29°56' W 090°00'0 0.0
2015-Jul-14 12:28N 29°56' W 090°00'0 0.4
2015-Jul-14 11:32N 29°56' W 089°60'2 2.2
2015-Jul-14 10:33N 29°57' W 090°02'0 0.0
2015-Jul-14 09:31N 29°57' W 090°02'1 0.7
2015-Jul-14 08:32N 29°58' W 090°02'0 0.3
2015-Jul-14 07:30N 29°58' W 090°01'3 2.4
2015-Jul-14 06:23N 30°00' W 089°59'0 0.2
2015-Jul-14 05:26N 30°00' W 089°59'0 0.0
2015-Jul-14 04:33N 30°00' W 089°59'0 0.0
2015-Jul-14 03:29N 30°00' W 089°59'0 0.0
2015-Jul-14 02:33N 30°00' W 089°59'0 0.0
2015-Jul-13 09:29N 30°00' W 089°59'0 0.0
2015-Jul-13 08:32N 30°00' W 089°59'0 0.0
2015-Jul-13 07:20N 29°60' W 089°59'0 0.0
2015-Jul-13 06:27N 29°60' W 089°59'0 0.0
2015-Jul-13 05:23N 29°60' W 089°59'0 0.0
2015-Jul-13 04:26N 29°60' W 089°59'0 0.0
2015-Jul-13 03:28N 29°60' W 089°59'0 0.0
2015-Jul-13 02:27N 29°60' W 089°59'0 0.0
2015-Jul-13 01:33N 29°60' W 089°59'0 0.0
2015-Jul-13 00:19N 29°60' W 089°59'0 0.0
2015-Jul-12 23:33N 29°60' W 089°59'0 0.0
2015-Jul-12 22:21N 29°60' W 089°59'0 0.0
2015-Jul-12 21:27N 29°60' W 089°59'0 0.0
2015-Jul-12 20:30N 29°60' W 089°59'0 0.0
2015-Jul-12 19:33N 29°60' W 089°59'0 0.0
2015-Jul-12 18:31N 29°60' W 089°59'0 0.0
2015-Jul-12 17:27N 29°60' W 089°59'0 0.0
2015-Jul-12 16:27N 29°60' W 089°59'0 0.0
2015-Jul-12 15:29N 29°60' W 089°59'0 0.0
2015-Jul-12 14:29N 29°60' W 089°59'0 0.0
2015-Jul-12 13:31N 29°60' W 089°59'0 0.0
2015-Jul-12 12:28N 29°60' W 089°59'  

Dump ship's entire track history